createdAt,value
2022-10-07T00:00:11.178Z,100.00
2022-10-07T00:05:12.874Z,100.00
2022-10-07T00:10:14.711Z,100.00
2022-10-07T00:15:16.965Z,100.00
2022-10-07T00:20:18.739Z,100.00
2022-10-07T00:25:21.486Z,100.00
2022-10-07T00:30:23.156Z,100.00
2022-10-07T00:35:24.760Z,100.00
2022-10-07T00:40:26.306Z,100.00
2022-10-07T00:45:28.383Z,100.00
2022-10-07T00:50:30.227Z,100.00
2022-10-07T00:55:32.382Z,100.00
2022-10-07T01:00:34.061Z,100.00
2022-10-07T01:05:35.698Z,100.00
2022-10-07T01:11:16.344Z,100.00
2022-10-07T01:16:48.487Z,100.00
2022-10-07T01:22:23.776Z,100.00
2022-10-07T01:27:27.412Z,100.00
2022-10-07T01:32:37.784Z,100.00
2022-10-07T01:37:44.679Z,100.00
2022-10-07T01:42:48.110Z,100.00
2022-10-07T01:47:50.684Z,100.00
2022-10-07T01:53:20.981Z,100.00
2022-10-07T01:58:53.748Z,100.00
2022-10-07T02:04:14.102Z,100.00
2022-10-07T02:09:30.331Z,100.00
2022-10-07T02:14:46.127Z,100.00
2022-10-07T02:19:56.551Z,100.00
2022-10-07T02:24:59.651Z,100.00
2022-10-07T02:30:11.155Z,100.00
2022-10-07T02:35:18.840Z,100.00
2022-10-07T02:40:25.010Z,100.00
2022-10-07T02:45:36.665Z,100.00
2022-10-07T02:50:42.369Z,100.00
2022-10-07T02:55:45.950Z,100.00
2022-10-07T03:00:53.157Z,100.00
2022-10-07T03:05:56.079Z,100.00
2022-10-07T03:11:01.200Z,100.00
2022-10-07T03:16:05.286Z,100.00
2022-10-07T03:21:08.621Z,100.00
2022-10-07T03:26:13.016Z,100.00
2022-10-07T03:31:15.572Z,100.00
2022-10-07T03:36:29.965Z,100.00
2022-10-07T03:41:31.827Z,100.00
2022-10-07T03:46:35.488Z,100.00
2022-10-07T03:51:37.250Z,100.00
2022-10-07T03:56:41.875Z,100.00
2022-10-07T04:01:43.541Z,100.00
2022-10-07T04:06:45.529Z,100.00
2022-10-07T04:11:49.182Z,100.00
2022-10-07T04:16:50.831Z,100.00
2022-10-07T04:21:52.899Z,100.00
2022-10-07T04:26:54.753Z,100.00
2022-10-07T04:31:58.842Z,100.00
2022-10-07T04:37:01.364Z,100.00
2022-10-07T04:42:04.185Z,100.00
2022-10-07T04:47:07.125Z,100.00
2022-10-07T04:52:11.703Z,100.00
2022-10-07T04:57:15.855Z,100.00
2022-10-07T05:02:19.439Z,100.00
2022-10-07T05:07:21.508Z,100.00
2022-10-07T05:12:25.059Z,100.00
2022-10-07T05:17:26.824Z,100.00
2022-10-07T05:22:28.560Z,100.00
2022-10-07T05:27:30.796Z,100.00
2022-10-07T05:32:35.256Z,100.00
2022-10-07T05:37:37.847Z,100.00
2022-10-07T05:42:39.560Z,100.00
2022-10-07T05:47:42.562Z,100.00
2022-10-07T05:52:45.365Z,100.00
2022-10-07T05:57:53.202Z,100.00
2022-10-07T06:02:55.180Z,100.00
2022-10-07T06:07:56.947Z,99.60
2022-10-07T06:13:08.747Z,99.89
2022-10-07T06:18:12.042Z,99.07
2022-10-07T06:23:13.745Z,99.45
2022-10-07T06:28:17.364Z,98.83
2022-10-07T06:33:19.618Z,99.16
2022-10-07T06:38:21.271Z,99.07
2022-10-07T06:43:23.037Z,98.58
2022-10-07T06:48:32.864Z,98.38
2022-10-07T06:53:34.718Z,97.59
2022-10-07T06:58:36.804Z,97.37
2022-10-07T07:03:40.458Z,97.49
2022-10-07T07:08:44.759Z,96.49
2022-10-07T07:13:47.268Z,96.04
2022-10-07T07:18:57.587Z,95.50
2022-10-07T07:24:01.264Z,95.95
2022-10-07T07:29:06.211Z,96.12
2022-10-07T07:34:16.332Z,95.67
2022-10-07T07:39:20.075Z,95.07
2022-10-07T07:44:34.042Z,95.10
2022-10-07T07:49:37.130Z,93.87
2022-10-07T07:54:41.915Z,93.43
2022-10-07T07:59:43.952Z,92.92
2022-10-07T08:04:48.136Z,91.86
2022-10-07T08:09:54.017Z,91.81
2022-10-07T08:14:55.684Z,91.88
2022-10-07T08:19:57.436Z,91.02
2022-10-07T08:25:00.268Z,91.11
2022-10-07T08:30:06.436Z,90.24
2022-10-07T08:35:08.974Z,90.05
2022-10-07T08:40:15.947Z,89.62
2022-10-07T08:45:29.389Z,89.20
2022-10-07T08:50:45.609Z,88.81
2022-10-07T08:55:47.167Z,89.31
2022-10-07T09:01:22.444Z,88.53
2022-10-07T09:06:55.328Z,88.93
2022-10-07T09:12:01.084Z,88.21
2022-10-07T09:17:17.091Z,87.15
2022-10-07T09:22:41.704Z,87.36
2022-10-07T09:27:43.575Z,86.73
2022-10-07T09:32:47.984Z,86.68
2022-10-07T09:37:55.813Z,85.94
2022-10-07T09:43:01.928Z,85.46
2022-10-07T09:48:17.346Z,84.37
2022-10-07T09:53:25.320Z,84.92
2022-10-07T09:58:26.821Z,85.17
2022-10-07T10:03:36.921Z,84.16
2022-10-07T10:08:42.612Z,84.45
2022-10-07T10:13:44.280Z,84.38
2022-10-07T10:18:55.556Z,82.29
2022-10-07T10:23:59.541Z,83.36
2022-10-07T10:29:18.384Z,82.74
2022-10-07T10:34:42.260Z,82.60
2022-10-07T10:40:09.043Z,80.75
2022-10-07T10:45:53.532Z,80.97
2022-10-07T10:51:05.974Z,80.97
2022-10-07T10:56:18.373Z,79.90
2022-10-07T11:01:36.545Z,78.97
2022-10-07T11:06:42.304Z,78.35
2022-10-07T11:11:44.931Z,78.44
2022-10-07T11:16:52.585Z,78.11
2022-10-07T11:21:57.315Z,77.47
2022-10-07T11:27:10.231Z,76.66
2022-10-07T11:32:22.821Z,76.74
2022-10-07T11:37:33.742Z,76.26
2022-10-07T11:42:44.493Z,75.45
2022-10-07T11:47:56.283Z,75.15
2022-10-07T11:53:05.631Z,75.52
2022-10-07T11:58:32.029Z,76.08
2022-10-07T12:03:33.712Z,75.95
2022-10-07T12:08:38.439Z,76.25
2022-10-07T12:13:51.631Z,76.16
2022-10-07T12:19:19.794Z,75.97
2022-10-07T12:24:26.685Z,76.39
2022-10-07T12:29:32.129Z,75.79
2022-10-07T12:34:39.933Z,75.64
2022-10-07T12:39:41.620Z,74.82
2022-10-07T12:44:52.587Z,75.29
2022-10-07T12:49:59.162Z,75.52
2022-10-07T12:55:14.336Z,75.24
2022-10-07T13:00:20.063Z,75.49
2022-10-07T13:05:59.285Z,75.25
2022-10-07T13:11:22.634Z,75.50
2022-10-07T13:16:45.475Z,75.18
2022-10-07T13:21:51.128Z,74.55
2022-10-07T13:26:52.915Z,74.36
2022-10-07T13:32:13.081Z,75.04
2022-10-07T13:37:32.247Z,74.69
2022-10-07T13:42:35.205Z,74.33
2022-10-07T13:47:37.941Z,73.28
2022-10-07T13:52:40.175Z,73.29
2022-10-07T13:57:44.309Z,73.89
2022-10-07T14:02:46.489Z,74.19
2022-10-07T14:07:56.032Z,73.80
2022-10-07T14:13:04.883Z,74.17
2022-10-07T14:18:09.190Z,75.02
2022-10-07T14:23:35.138Z,74.13
2022-10-07T14:28:38.657Z,74.61
2022-10-07T14:34:20.533Z,74.59
2022-10-07T14:39:24.065Z,74.25
2022-10-07T14:44:25.987Z,74.39
2022-10-07T14:49:27.911Z,74.80
2022-10-07T14:54:30.891Z,74.52
2022-10-07T14:59:32.399Z,74.81
2022-10-07T15:04:36.529Z,75.26
2022-10-07T15:09:38.097Z,74.82
2022-10-07T15:14:39.669Z,74.86
2022-10-07T15:19:41.323Z,74.68
2022-10-07T15:24:42.836Z,75.01
2022-10-07T15:29:44.644Z,74.69
2022-10-07T15:34:46.354Z,74.66
2022-10-07T15:39:48.376Z,74.42
2022-10-07T15:44:51.135Z,74.73
2022-10-07T15:49:52.653Z,74.57
2022-10-07T15:54:54.317Z,75.23
2022-10-07T15:59:55.911Z,75.81
2022-10-07T16:04:57.448Z,76.31
2022-10-07T16:09:58.981Z,77.30
2022-10-07T16:15:02.848Z,77.30
2022-10-07T16:20:11.229Z,78.13
2022-10-07T16:25:14.574Z,80.04
2022-10-07T16:30:34.694Z,81.00
2022-10-07T16:35:36.233Z,81.84
2022-10-07T16:40:51.360Z,82.72
2022-10-07T16:45:52.877Z,83.90
2022-10-07T16:50:55.462Z,84.60
2022-10-07T16:56:01.154Z,86.24
2022-10-07T17:01:04.328Z,87.95
2022-10-07T17:06:12.904Z,89.93
2022-10-07T17:11:30.360Z,90.63
2022-10-07T17:16:36.578Z,91.31
2022-10-07T17:21:40.068Z,92.55
2022-10-07T17:26:41.639Z,94.42
2022-10-07T17:31:44.279Z,94.94
2022-10-07T17:36:48.954Z,95.59
2022-10-07T17:41:52.619Z,97.06
2022-10-07T17:46:56.695Z,97.15
2022-10-07T17:51:58.367Z,98.15
2022-10-07T17:57:05.675Z,99.20
2022-10-07T18:02:08.518Z,100.00
2022-10-07T18:07:10.432Z,100.00
2022-10-07T18:12:30.664Z,100.00
2022-10-07T18:17:32.216Z,100.00
2022-10-07T18:22:34.764Z,100.00
2022-10-07T18:27:36.309Z,100.00
2022-10-07T18:32:37.936Z,100.00
2022-10-07T18:37:41.645Z,100.00
2022-10-07T18:42:43.297Z,100.00
2022-10-07T18:47:45.019Z,100.00
2022-10-07T18:52:46.795Z,100.00
2022-10-07T18:57:48.719Z,100.00
2022-10-07T19:02:51.223Z,100.00
2022-10-07T19:07:52.727Z,100.00
2022-10-07T19:13:20.639Z,100.00
2022-10-07T19:18:25.353Z,100.00
2022-10-07T19:23:27.887Z,100.00
2022-10-07T19:28:34.632Z,100.00
2022-10-07T19:33:36.164Z,100.00
2022-10-07T19:38:42.199Z,100.00
2022-10-07T19:43:45.061Z,100.00
2022-10-07T19:48:46.956Z,100.00
2022-10-07T19:53:55.378Z,100.00
2022-10-07T19:59:13.260Z,100.00
2022-10-07T20:04:18.878Z,100.00
2022-10-07T20:09:20.662Z,100.00
2022-10-07T20:14:22.198Z,100.00
2022-10-07T20:19:25.859Z,100.00
2022-10-07T20:24:38.696Z,100.00
2022-10-07T20:29:57.022Z,100.00
2022-10-07T20:34:58.775Z,100.00
2022-10-07T20:40:30.419Z,100.00
2022-10-07T20:45:57.669Z,100.00
2022-10-07T20:51:08.297Z,100.00
2022-10-07T20:56:09.915Z,100.00
2022-10-07T21:01:12.365Z,100.00
2022-10-07T21:06:18.959Z,100.00
2022-10-07T21:11:20.608Z,100.00
2022-10-07T21:16:24.164Z,100.00
2022-10-07T21:21:29.948Z,100.00
2022-10-07T21:26:31.460Z,100.00
2022-10-07T21:31:35.942Z,100.00
2022-10-07T21:36:41.118Z,100.00
2022-10-07T21:41:59.820Z,100.00
2022-10-07T21:47:01.478Z,100.00
2022-10-07T21:52:03.090Z,100.00
2022-10-07T21:57:18.750Z,100.00
2022-10-07T22:02:20.349Z,100.00
2022-10-07T22:07:55.194Z,100.00
2022-10-07T22:13:01.920Z,100.00
2022-10-07T22:18:04.280Z,100.00
2022-10-07T22:23:05.853Z,100.00
2022-10-07T22:28:07.430Z,100.00
2022-10-07T22:33:13.262Z,100.00
2022-10-07T22:38:17.778Z,100.00
2022-10-07T22:43:19.279Z,100.00
2022-10-07T22:48:20.794Z,100.00
2022-10-07T22:53:24.007Z,100.00
2022-10-07T22:58:25.509Z,100.00
2022-10-07T23:03:29.913Z,100.00
2022-10-07T23:08:37.241Z,100.00
2022-10-07T23:13:42.244Z,100.00
2022-10-07T23:18:59.957Z,100.00
2022-10-07T23:24:13.837Z,100.00
2022-10-07T23:29:17.761Z,100.00
2022-10-07T23:34:19.301Z,100.00
2022-10-07T23:39:22.219Z,100.00
2022-10-07T23:44:24.013Z,100.00
2022-10-07T23:49:26.133Z,100.00
2022-10-07T23:54:27.661Z,100.00
2022-10-07T23:59:35.798Z,100.00
